createdAt,value
2023-02-11T00:00:39.882Z,29.38
2023-02-11T00:03:42.428Z,30.90
2023-02-11T00:06:45.010Z,29.65
2023-02-11T00:09:47.595Z,27.65
2023-02-11T00:12:50.116Z,27.38
2023-02-11T00:15:53.633Z,28.90
2023-02-11T00:18:56.152Z,29.87
2023-02-11T00:21:58.849Z,28.38
2023-02-11T00:25:01.532Z,31.00
2023-02-11T00:28:04.342Z,29.53
2023-02-11T00:31:07.107Z,29.88
2023-02-11T00:34:10.526Z,30.15
2023-02-11T00:37:14.237Z,30.40
2023-02-11T00:40:17.777Z,29.75
2023-02-11T00:43:20.551Z,28.42
2023-02-11T00:46:23.778Z,29.98
2023-02-11T00:49:26.318Z,29.37
2023-02-11T00:52:30.078Z,28.10
2023-02-11T00:55:32.594Z,28.20
2023-02-11T00:58:35.647Z,28.70
2023-02-11T01:01:38.557Z,27.75
2023-02-11T01:04:41.203Z,29.08
2023-02-11T01:07:43.710Z,29.05
2023-02-11T01:11:03.782Z,27.50
2023-02-11T01:14:06.218Z,27.15
2023-02-11T01:17:08.757Z,27.85
2023-02-11T01:20:17.059Z,27.87
2023-02-11T01:23:19.591Z,25.50
2023-02-11T01:26:22.036Z,27.83
2023-02-11T01:29:26.062Z,25.63
2023-02-11T01:32:31.280Z,26.55
2023-02-11T01:35:33.682Z,28.58
2023-02-11T01:38:36.449Z,25.33
2023-02-11T01:41:39.176Z,26.33
2023-02-11T01:44:42.032Z,26.63
2023-02-11T01:47:44.718Z,27.25
2023-02-11T01:50:50.847Z,25.13
2023-02-11T01:54:14.100Z,25.70
2023-02-11T01:57:23.417Z,25.27
2023-02-11T02:00:38.879Z,23.50
2023-02-11T02:03:45.520Z,25.15
2023-02-11T02:06:56.190Z,26.23
2023-02-11T02:10:04.705Z,24.40
2023-02-11T02:13:07.319Z,21.52
2023-02-11T02:16:19.734Z,23.77
2023-02-11T02:19:40.758Z,24.42
2023-02-11T02:23:01.709Z,22.63
2023-02-11T02:26:04.069Z,23.48
2023-02-11T02:29:34.861Z,25.30
2023-02-11T02:32:49.489Z,24.37
2023-02-11T02:36:01.131Z,22.42
2023-02-11T02:39:09.529Z,22.55
2023-02-11T02:42:13.104Z,22.55
2023-02-11T02:45:16.583Z,21.80
2023-02-11T02:48:28.342Z,23.98
2023-02-11T02:51:45.954Z,21.95
2023-02-11T02:55:20.678Z,21.13
2023-02-11T02:58:32.240Z,21.77
2023-02-11T03:01:50.246Z,19.45
2023-02-11T03:05:04.692Z,21.63
2023-02-11T03:08:13.509Z,20.13
2023-02-11T03:11:19.180Z,21.13
2023-02-11T03:14:23.638Z,19.92
2023-02-11T03:17:28.651Z,21.20
2023-02-11T03:20:36.630Z,21.73
2023-02-11T03:24:01.067Z,20.33
2023-02-11T03:27:29.184Z,20.90
2023-02-11T03:31:03.434Z,19.55
2023-02-11T03:34:14.516Z,20.90
2023-02-11T03:37:37.099Z,20.90
2023-02-11T03:40:42.429Z,21.50
2023-02-11T03:43:48.576Z,21.00
2023-02-11T03:46:54.058Z,21.33
2023-02-11T03:49:59.453Z,21.75
2023-02-11T03:53:03.599Z,22.15
2023-02-11T03:56:11.575Z,21.85
2023-02-11T03:59:13.957Z,19.87
2023-02-11T04:02:16.853Z,21.33
2023-02-11T04:05:19.491Z,21.35
2023-02-11T04:08:22.175Z,22.13
2023-02-11T04:11:24.718Z,21.67
2023-02-11T04:14:27.143Z,21.45
2023-02-11T04:17:29.566Z,20.33
2023-02-11T04:20:32.101Z,21.30
2023-02-11T04:23:34.552Z,21.27
2023-02-11T04:26:37.027Z,20.67
2023-02-11T04:29:39.527Z,21.57
2023-02-11T04:32:41.956Z,20.60
2023-02-11T04:35:44.409Z,21.05
2023-02-11T04:38:46.855Z,20.67
2023-02-11T04:41:49.627Z,21.88
2023-02-11T04:44:52.300Z,21.15
2023-02-11T04:47:54.712Z,20.50
2023-02-11T04:50:57.435Z,20.73
2023-02-11T04:53:59.932Z,20.25
2023-02-11T04:57:02.701Z,21.33
2023-02-11T05:00:06.028Z,20.77
2023-02-11T05:03:08.466Z,20.55
2023-02-11T05:06:11.527Z,20.20
2023-02-11T05:09:14.664Z,19.27
2023-02-11T05:12:18.272Z,20.27
2023-02-11T05:15:20.693Z,20.48
2023-02-11T05:18:24.124Z,21.88
2023-02-11T05:21:26.660Z,20.40
2023-02-11T05:24:29.127Z,19.90
2023-02-11T05:27:31.563Z,19.40
2023-02-11T05:30:34.424Z,21.53
2023-02-11T05:33:36.884Z,21.20
2023-02-11T05:36:39.315Z,20.88
2023-02-11T05:39:41.852Z,20.40
2023-02-11T05:42:44.294Z,20.95
2023-02-11T05:45:46.730Z,21.95
2023-02-11T05:48:49.125Z,20.15
2023-02-11T05:51:51.576Z,21.80
2023-02-11T05:54:54.009Z,22.00
2023-02-11T05:57:56.524Z,21.30
2023-02-11T06:00:59.068Z,21.50
2023-02-11T06:04:01.557Z,21.67
2023-02-11T06:07:04.402Z,21.27
2023-02-11T06:10:07.610Z,21.27
2023-02-11T06:13:10.264Z,20.23
2023-02-11T06:16:12.710Z,21.90
2023-02-11T06:19:15.104Z,20.80
2023-02-11T06:22:17.759Z,21.58
2023-02-11T06:25:20.319Z,21.60
2023-02-11T06:28:22.906Z,22.27
2023-02-11T06:31:26.159Z,21.33
2023-02-11T06:34:28.723Z,22.65
2023-02-11T06:37:31.442Z,23.55
2023-02-11T06:40:33.986Z,23.13
2023-02-11T06:43:36.447Z,22.55
2023-02-11T06:46:39.016Z,22.75
2023-02-11T06:49:41.863Z,22.33
2023-02-11T06:52:44.946Z,23.88
2023-02-11T06:55:47.495Z,24.25
2023-02-11T06:58:55.673Z,26.13
2023-02-11T07:02:00.359Z,24.63
2023-02-11T07:05:06.882Z,24.35
2023-02-11T07:08:10.115Z,26.52
2023-02-11T07:11:24.339Z,25.80
2023-02-11T07:14:27.196Z,28.48
2023-02-11T07:17:29.686Z,28.90
2023-02-11T07:20:32.210Z,27.10
2023-02-11T07:23:35.614Z,25.80
2023-02-11T07:26:38.552Z,25.80
2023-02-11T07:29:42.776Z,26.48
2023-02-11T07:32:46.762Z,25.40
2023-02-11T07:35:49.515Z,24.13
2023-02-11T07:38:52.679Z,23.48
2023-02-11T07:41:55.496Z,22.23
2023-02-11T07:44:59.058Z,22.42
2023-02-11T07:48:01.682Z,24.45
2023-02-11T07:51:12.465Z,25.10
2023-02-11T07:54:16.457Z,24.15
2023-02-11T07:57:18.951Z,24.67
2023-02-11T08:00:22.407Z,24.02
2023-02-11T08:03:24.893Z,20.80
2023-02-11T08:06:31.249Z,24.70
2023-02-11T08:09:34.655Z,23.63
2023-02-11T08:12:37.193Z,24.60
2023-02-11T08:15:39.694Z,22.88
2023-02-11T08:18:42.637Z,23.55
2023-02-11T08:21:46.140Z,24.20
2023-02-11T08:24:51.333Z,25.70
2023-02-11T08:27:54.750Z,24.95
2023-02-11T08:30:58.065Z,25.40
2023-02-11T08:34:02.478Z,27.90
2023-02-11T08:37:09.284Z,26.65
2023-02-11T08:40:11.917Z,26.75
2023-02-11T08:43:14.595Z,27.63
2023-02-11T08:46:19.867Z,28.42
2023-02-11T08:49:22.871Z,27.15
2023-02-11T08:52:25.614Z,28.45
2023-02-11T08:55:28.579Z,28.70
2023-02-11T08:58:31.098Z,26.92
2023-02-11T09:01:33.972Z,26.77
2023-02-11T09:04:36.472Z,27.70
2023-02-11T09:07:39.016Z,25.63
2023-02-11T09:10:41.451Z,25.67
2023-02-11T09:13:45.080Z,25.73
2023-02-11T09:16:48.532Z,20.40
2023-02-11T09:19:51.256Z,22.25
2023-02-11T09:22:55.203Z,19.33
2023-02-11T09:25:57.997Z,19.77
2023-02-11T09:29:01.542Z,20.70
2023-02-11T09:32:04.511Z,17.87
2023-02-11T09:35:07.528Z,17.15
2023-02-11T09:38:10.017Z,16.50
2023-02-11T09:41:46.825Z,16.30
2023-02-11T09:44:49.896Z,18.43
2023-02-11T09:48:00.547Z,17.27
2023-02-11T09:51:04.409Z,17.90
2023-02-11T09:54:23.675Z,19.23
2023-02-11T09:57:34.284Z,18.20
2023-02-11T10:00:44.498Z,17.70
2023-02-11T10:04:24.809Z,18.58
2023-02-11T10:07:42.383Z,18.17
2023-02-11T10:10:56.899Z,18.90
2023-02-11T10:14:21.575Z,17.98
2023-02-11T10:17:33.028Z,15.95
2023-02-11T10:20:46.080Z,16.60
2023-02-11T10:23:54.008Z,16.97
2023-02-11T10:26:56.512Z,16.00
2023-02-11T10:30:16.136Z,17.35
2023-02-11T10:33:43.637Z,18.67
2023-02-11T10:36:46.076Z,17.33
2023-02-11T10:39:49.818Z,18.93
2023-02-11T10:42:55.974Z,18.03
2023-02-11T10:46:00.461Z,18.42
2023-02-11T10:49:04.151Z,18.05
2023-02-11T10:52:24.278Z,18.05
2023-02-11T10:55:28.718Z,17.00
2023-02-11T10:58:37.598Z,16.43
2023-02-11T11:02:04.566Z,17.10
2023-02-11T11:05:19.944Z,17.75
2023-02-11T11:08:22.469Z,17.73
2023-02-11T11:11:26.416Z,17.90
2023-02-11T11:14:29.713Z,18.43
2023-02-11T11:17:32.216Z,19.35
2023-02-11T11:20:36.393Z,20.00
2023-02-11T11:23:39.839Z,20.15
2023-02-11T11:26:45.365Z,17.47
2023-02-11T11:29:55.625Z,17.73
2023-02-11T11:32:59.332Z,16.45
2023-02-11T11:36:07.851Z,17.15
2023-02-11T11:39:33.733Z,15.75
2023-02-11T11:42:38.852Z,14.07
2023-02-11T11:45:59.364Z,14.70
2023-02-11T11:49:13.420Z,14.88
2023-02-11T11:52:26.716Z,14.15
2023-02-11T11:55:36.445Z,14.60
2023-02-11T11:58:38.875Z,14.00
2023-02-11T12:02:02.295Z,11.43
2023-02-11T12:05:24.532Z,13.75
2023-02-11T12:09:12.788Z,13.65
2023-02-11T12:12:33.567Z,13.43
2023-02-11T12:15:56.152Z,13.87
2023-02-11T12:19:20.650Z,12.50
2023-02-11T12:22:37.181Z,13.07
2023-02-11T12:25:48.071Z,12.90
2023-02-11T12:29:02.119Z,13.15
2023-02-11T12:32:08.281Z,11.47
2023-02-11T12:35:28.447Z,14.57
2023-02-11T12:39:22.996Z,13.18
2023-02-11T12:43:03.474Z,14.05
2023-02-11T12:46:48.280Z,13.90
2023-02-11T12:50:04.632Z,14.73
2023-02-11T12:53:19.637Z,14.53
2023-02-11T12:56:31.708Z,15.32
2023-02-11T13:00:11.746Z,14.48
2023-02-11T13:03:47.337Z,14.48
2023-02-11T13:07:02.671Z,14.50
2023-02-11T13:10:15.564Z,11.53
2023-02-11T13:13:23.770Z,13.07
2023-02-11T13:16:33.046Z,12.55
2023-02-11T13:19:47.277Z,11.77
2023-02-11T13:23:17.306Z,10.90
2023-02-11T13:26:26.319Z,11.37
2023-02-11T13:29:49.189Z,11.18
2023-02-11T13:32:54.787Z,10.70
2023-02-11T13:35:57.375Z,10.98
2023-02-11T13:39:03.533Z,10.70
2023-02-11T13:42:06.116Z,10.63
2023-02-11T13:45:37.597Z,10.35
2023-02-11T13:48:47.512Z,9.55
2023-02-11T13:51:51.938Z,9.38
2023-02-11T13:54:59.350Z,10.70
2023-02-11T13:58:07.785Z,9.63
2023-02-11T14:01:10.371Z,11.27
2023-02-11T14:04:47.977Z,10.43
2023-02-11T14:08:28.188Z,11.23
2023-02-11T14:11:45.026Z,12.23
2023-02-11T14:15:04.835Z,11.50
2023-02-11T14:18:37.215Z,11.70
2023-02-11T14:21:43.203Z,11.32
2023-02-11T14:24:49.908Z,10.93
2023-02-11T14:27:56.707Z,11.23
2023-02-11T14:31:07.630Z,12.53
2023-02-11T14:34:29.895Z,10.27
2023-02-11T14:38:21.806Z,10.13
2023-02-11T14:41:27.165Z,9.38
2023-02-11T14:44:32.367Z,10.03
2023-02-11T14:47:53.888Z,9.50
2023-02-11T14:51:18.849Z,10.77
2023-02-11T14:54:26.557Z,10.95
2023-02-11T14:57:29.794Z,10.60
2023-02-11T15:00:32.362Z,10.33
2023-02-11T15:03:38.917Z,10.67
2023-02-11T15:06:45.377Z,10.82
2023-02-11T15:09:54.042Z,9.35
2023-02-11T15:12:57.923Z,11.15
2023-02-11T15:16:11.188Z,11.40
2023-02-11T15:19:41.363Z,11.50
2023-02-11T15:22:46.302Z,11.07
2023-02-11T15:25:55.658Z,11.88
2023-02-11T15:28:59.414Z,11.70
2023-02-11T15:32:07.254Z,12.10
2023-02-11T15:35:11.974Z,12.03
2023-02-11T15:38:14.677Z,11.77
2023-02-11T15:41:49.461Z,12.27
2023-02-11T15:45:14.811Z,11.10
2023-02-11T15:48:26.979Z,10.83
2023-02-11T15:51:36.344Z,11.37
2023-02-11T15:54:47.165Z,12.65
2023-02-11T15:57:55.173Z,11.98
2023-02-11T16:01:00.029Z,11.85
2023-02-11T16:04:06.268Z,10.00
2023-02-11T16:07:38.961Z,12.13
2023-02-11T16:11:08.859Z,12.40
2023-02-11T16:14:32.618Z,11.60
2023-02-11T16:17:35.998Z,11.05
2023-02-11T16:20:39.017Z,11.37
2023-02-11T16:23:44.959Z,11.82
2023-02-11T16:26:53.511Z,11.75
2023-02-11T16:29:58.144Z,11.82
2023-02-11T16:33:02.142Z,12.50
2023-02-11T16:36:17.259Z,12.37
2023-02-11T16:39:24.629Z,12.43
2023-02-11T16:42:27.473Z,11.80
2023-02-11T16:45:30.139Z,12.85
2023-02-11T16:48:33.567Z,12.10
2023-02-11T16:51:39.983Z,11.75
2023-02-11T16:54:42.819Z,13.55
2023-02-11T16:57:45.576Z,12.25
2023-02-11T17:00:48.851Z,12.80
2023-02-11T17:03:51.822Z,11.43
2023-02-11T17:06:56.595Z,12.98
2023-02-11T17:10:01.202Z,12.63
2023-02-11T17:13:05.195Z,12.52
2023-02-11T17:16:16.027Z,12.40
2023-02-11T17:19:23.745Z,13.80
2023-02-11T17:22:26.516Z,13.10
2023-02-11T17:25:29.778Z,13.48
2023-02-11T17:28:32.885Z,13.47
2023-02-11T17:31:37.813Z,12.90
2023-02-11T17:34:40.969Z,13.15
2023-02-11T17:37:43.591Z,12.90
2023-02-11T17:40:46.341Z,12.77
2023-02-11T17:43:48.826Z,11.60
2023-02-11T17:46:51.520Z,12.33
2023-02-11T17:49:54.674Z,12.50
2023-02-11T17:52:57.793Z,12.68
2023-02-11T17:56:06.317Z,12.18
2023-02-11T17:59:11.247Z,13.33
2023-02-11T18:02:14.347Z,12.30
2023-02-11T18:05:17.139Z,12.82
2023-02-11T18:08:19.846Z,11.90
2023-02-11T18:11:24.097Z,13.05
2023-02-11T18:14:26.787Z,13.30
2023-02-11T18:17:29.432Z,12.60
2023-02-11T18:20:33.291Z,12.10
2023-02-11T18:23:36.104Z,11.93
2023-02-11T18:26:39.097Z,13.13
2023-02-11T18:29:41.819Z,13.17
2023-02-11T18:32:44.954Z,13.53
2023-02-11T18:35:49.250Z,12.05
2023-02-11T18:38:53.710Z,12.88
2023-02-11T18:41:58.801Z,13.48
2023-02-11T18:45:01.200Z,12.77
2023-02-11T18:48:05.797Z,11.90
2023-02-11T18:51:10.449Z,12.30
2023-02-11T18:54:13.516Z,12.70
2023-02-11T18:57:16.156Z,13.27
2023-02-11T19:00:20.777Z,13.30
2023-02-11T19:03:23.497Z,13.00
2023-02-11T19:06:28.993Z,13.48
2023-02-11T19:09:31.960Z,14.00
2023-02-11T19:12:35.071Z,14.65
2023-02-11T19:15:46.638Z,16.43
2023-02-11T19:18:50.015Z,14.37
2023-02-11T19:21:52.881Z,14.15
2023-02-11T19:24:55.340Z,15.15
2023-02-11T19:27:58.043Z,12.50
2023-02-11T19:31:10.024Z,13.17
2023-02-11T19:34:19.928Z,13.60
2023-02-11T19:37:22.412Z,13.15
2023-02-11T19:40:25.256Z,12.77
2023-02-11T19:43:28.614Z,14.85
2023-02-11T19:46:34.865Z,12.83
2023-02-11T19:49:37.543Z,12.13
2023-02-11T19:52:40.817Z,11.77
2023-02-11T19:55:43.712Z,12.38
2023-02-11T19:58:46.454Z,12.77
2023-02-11T20:01:49.998Z,12.27
2023-02-11T20:04:53.004Z,11.57
2023-02-11T20:07:55.557Z,10.73
2023-02-11T20:11:05.397Z,10.90
2023-02-11T20:14:08.665Z,11.77
2023-02-11T20:17:11.411Z,12.43
2023-02-11T20:20:14.202Z,12.43
2023-02-11T20:23:16.886Z,11.40
2023-02-11T20:26:22.743Z,11.50
2023-02-11T20:29:25.923Z,11.88
2023-02-11T20:32:31.145Z,11.80
2023-02-11T20:35:35.345Z,10.48
2023-02-11T20:38:38.242Z,11.98
2023-02-11T20:41:41.069Z,10.70
2023-02-11T20:44:45.335Z,11.75
2023-02-11T20:47:47.800Z,11.50
2023-02-11T20:50:50.746Z,11.02
2023-02-11T20:53:54.339Z,9.77
2023-02-11T20:56:58.208Z,11.02
2023-02-11T21:00:00.688Z,9.43
2023-02-11T21:03:04.287Z,11.23
2023-02-11T21:06:08.101Z,11.40
2023-02-11T21:09:17.720Z,12.38
2023-02-11T21:12:20.694Z,11.23
2023-02-11T21:15:24.138Z,11.20
2023-02-11T21:18:27.145Z,11.07
2023-02-11T21:21:30.829Z,11.50
2023-02-11T21:24:33.563Z,11.07
2023-02-11T21:27:36.363Z,10.80
2023-02-11T21:30:40.008Z,11.13
2023-02-11T21:33:42.740Z,11.27
2023-02-11T21:36:45.579Z,11.85
2023-02-11T21:39:48.293Z,11.10
2023-02-11T21:42:51.332Z,10.80
2023-02-11T21:45:54.156Z,10.82
2023-02-11T21:48:57.879Z,11.18
2023-02-11T21:52:00.654Z,11.02
2023-02-11T21:55:03.666Z,10.20
2023-02-11T21:58:07.866Z,10.77
2023-02-11T22:01:15.467Z,11.30
2023-02-11T22:04:18.191Z,12.13
2023-02-11T22:07:22.714Z,10.70
2023-02-11T22:10:25.395Z,11.93
2023-02-11T22:13:28.056Z,12.00
2023-02-11T22:16:31.251Z,11.13
2023-02-11T22:19:34.316Z,11.63
2023-02-11T22:22:37.102Z,10.77
2023-02-11T22:25:39.568Z,12.20
2023-02-11T22:28:42.863Z,11.25
2023-02-11T22:31:45.384Z,11.23
2023-02-11T22:34:47.866Z,12.07
2023-02-11T22:37:50.312Z,11.93
2023-02-11T22:40:52.939Z,11.40
2023-02-11T22:43:55.530Z,11.10
2023-02-11T22:46:58.131Z,10.70
2023-02-11T22:50:00.712Z,11.18
2023-02-11T22:53:03.135Z,10.15
2023-02-11T22:56:10.575Z,11.10
2023-02-11T22:59:15.397Z,10.60
2023-02-11T23:02:17.953Z,10.57
2023-02-11T23:05:20.492Z,10.38
2023-02-11T23:08:22.988Z,10.68
2023-02-11T23:11:28.662Z,11.77
2023-02-11T23:14:31.342Z,10.98
2023-02-11T23:17:33.925Z,11.15
2023-02-11T23:20:42.437Z,10.80
2023-02-11T23:23:45.862Z,9.80
2023-02-11T23:26:49.157Z,10.07
2023-02-11T23:29:51.770Z,11.20
2023-02-11T23:32:54.414Z,11.32
2023-02-11T23:35:57.004Z,11.63
2023-02-11T23:39:00.041Z,10.93
2023-02-11T23:42:02.676Z,11.32
2023-02-11T23:45:05.723Z,10.80
2023-02-11T23:48:08.146Z,10.47
2023-02-11T23:51:10.857Z,10.63
2023-02-11T23:54:15.161Z,11.38
2023-02-11T23:57:17.922Z,11.20
